sensor_id;sensor_type;location;lat;lon;timestamp;P1;durP1;ratioP1;P2;durP2;ratioP2
24801;SDS011;12898;50.520;12.152;2022-08-19T00:01:29;33.03;;;28.77;;
24801;SDS011;12898;50.520;12.152;2022-08-19T00:03:59;34.35;;;29.17;;
24801;SDS011;12898;50.520;12.152;2022-08-19T00:06:33;33.70;;;29.15;;
24801;SDS011;12898;50.520;12.152;2022-08-19T00:09:00;36.85;;;30.75;;
24801;SDS011;12898;50.520;12.152;2022-08-19T00:11:26;34.50;;;28.67;;
24801;SDS011;12898;50.520;12.152;2022-08-19T00:13:54;39.83;;;31.45;;
24801;SDS011;12898;50.520;12.152;2022-08-19T00:16:21;39.20;;;31.85;;
24801;SDS011;12898;50.520;12.152;2022-08-19T00:18:48;36.17;;;31.27;;
24801;SDS011;12898;50.520;12.152;2022-08-19T00:21:14;35.88;;;30.55;;
24801;SDS011;12898;50.520;12.152;2022-08-19T00:23:40;36.13;;;30.25;;
24801;SDS011;12898;50.520;12.152;2022-08-19T00:26:08;36.58;;;30.73;;
24801;SDS011;12898;50.520;12.152;2022-08-19T00:28:35;38.20;;;30.35;;
24801;SDS011;12898;50.520;12.152;2022-08-19T00:31:02;36.63;;;29.50;;
24801;SDS011;12898;50.520;12.152;2022-08-19T00:33:30;32.88;;;27.63;;
24801;SDS011;12898;50.520;12.152;2022-08-19T00:35:57;35.13;;;28.83;;
24801;SDS011;12898;50.520;12.152;2022-08-19T00:38:29;36.67;;;28.98;;
24801;SDS011;12898;50.520;12.152;2022-08-19T00:40:55;40.53;;;28.60;;
24801;SDS011;12898;50.520;12.152;2022-08-19T00:43:22;35.67;;;28.33;;
24801;SDS011;12898;50.520;12.152;2022-08-19T00:45:51;32.42;;;27.00;;
24801;SDS011;12898;50.520;12.152;2022-08-19T00:48:17;35.15;;;28.60;;
24801;SDS011;12898;50.520;12.152;2022-08-19T00:50:45;34.60;;;28.30;;
24801;SDS011;12898;50.520;12.152;2022-08-19T00:53:14;34.95;;;28.50;;
24801;SDS011;12898;50.520;12.152;2022-08-19T00:55:44;31.00;;;27.35;;
24801;SDS011;12898;50.520;12.152;2022-08-19T00:58:13;35.08;;;28.02;;
24801;SDS011;12898;50.520;12.152;2022-08-19T01:00:42;31.88;;;27.27;;
24801;SDS011;12898;50.520;12.152;2022-08-19T01:03:11;34.13;;;28.02;;
24801;SDS011;12898;50.520;12.152;2022-08-19T01:05:41;33.55;;;28.60;;
24801;SDS011;12898;50.520;12.152;2022-08-19T01:08:08;33.60;;;26.88;;
24801;SDS011;12898;50.520;12.152;2022-08-19T01:10:38;34.83;;;28.02;;
24801;SDS011;12898;50.520;12.152;2022-08-19T01:13:08;29.92;;;25.45;;
24801;SDS011;12898;50.520;12.152;2022-08-19T01:15:36;31.75;;;27.20;;
24801;SDS011;12898;50.520;12.152;2022-08-19T01:18:09;31.20;;;25.70;;
24801;SDS011;12898;50.520;12.152;2022-08-19T01:20:38;32.95;;;27.55;;
24801;SDS011;12898;50.520;12.152;2022-08-19T01:23:05;30.58;;;26.35;;
24801;SDS011;12898;50.520;12.152;2022-08-19T01:25:32;34.03;;;28.08;;
24801;SDS011;12898;50.520;12.152;2022-08-19T01:28:04;32.78;;;27.35;;
24801;SDS011;12898;50.520;12.152;2022-08-19T01:30:32;33.00;;;27.73;;
24801;SDS011;12898;50.520;12.152;2022-08-19T01:33:00;36.85;;;30.42;;
24801;SDS011;12898;50.520;12.152;2022-08-19T01:35:28;39.45;;;30.15;;
24801;SDS011;12898;50.520;12.152;2022-08-19T01:37:59;32.55;;;28.33;;
24801;SDS011;12898;50.520;12.152;2022-08-19T01:40:32;37.55;;;30.83;;
24801;SDS011;12898;50.520;12.152;2022-08-19T01:43:01;36.40;;;31.45;;
24801;SDS011;12898;50.520;12.152;2022-08-19T01:45:28;36.88;;;30.10;;
24801;SDS011;12898;50.520;12.152;2022-08-19T01:47:56;38.55;;;31.80;;
24801;SDS011;12898;50.520;12.152;2022-08-19T01:50:23;37.50;;;31.48;;
24801;SDS011;12898;50.520;12.152;2022-08-19T01:52:50;39.13;;;32.28;;
24801;SDS011;12898;50.520;12.152;2022-08-19T01:55:17;42.03;;;33.75;;
24801;SDS011;12898;50.520;12.152;2022-08-19T01:57:49;40.22;;;33.33;;
24801;SDS011;12898;50.520;12.152;2022-08-19T02:00:18;42.20;;;34.25;;
24801;SDS011;12898;50.520;12.152;2022-08-19T02:02:47;39.55;;;33.75;;
24801;SDS011;12898;50.520;12.152;2022-08-19T02:05:13;42.13;;;34.58;;
24801;SDS011;12898;50.520;12.152;2022-08-19T02:07:41;41.40;;;35.15;;
24801;SDS011;12898;50.520;12.152;2022-08-19T02:10:08;39.65;;;32.92;;
24801;SDS011;12898;50.520;12.152;2022-08-19T02:12:40;40.88;;;34.90;;
24801;SDS011;12898;50.520;12.152;2022-08-19T02:15:06;42.83;;;36.33;;
24801;SDS011;12898;50.520;12.152;2022-08-19T02:17:32;38.90;;;33.42;;
24801;SDS011;12898;50.520;12.152;2022-08-19T02:19:58;43.33;;;36.58;;
24801;SDS011;12898;50.520;12.152;2022-08-19T02:22:25;41.95;;;35.45;;
24801;SDS011;12898;50.520;12.152;2022-08-19T02:24:51;42.60;;;35.50;;
24801;SDS011;12898;50.520;12.152;2022-08-19T02:27:18;42.28;;;36.97;;
24801;SDS011;12898;50.520;12.152;2022-08-19T02:29:45;50.15;;;38.80;;
24801;SDS011;12898;50.520;12.152;2022-08-19T02:32:13;42.72;;;36.22;;
24801;SDS011;12898;50.520;12.152;2022-08-19T02:34:39;45.47;;;36.88;;
24801;SDS011;12898;50.520;12.152;2022-08-19T02:37:05;42.28;;;35.60;;
24801;SDS011;12898;50.520;12.152;2022-08-19T02:39:51;42.28;;;37.30;;
24801;SDS011;12898;50.520;12.152;2022-08-19T02:42:16;43.30;;;37.05;;
24801;SDS011;12898;50.520;12.152;2022-08-19T02:44:42;44.67;;;38.22;;
24801;SDS011;12898;50.520;12.152;2022-08-19T02:47:09;46.00;;;36.40;;
24801;SDS011;12898;50.520;12.152;2022-08-19T02:49:35;44.42;;;37.83;;
24801;SDS011;12898;50.520;12.152;2022-08-19T02:52:00;42.63;;;35.00;;
24801;SDS011;12898;50.520;12.152;2022-08-19T02:54:27;55.42;;;39.80;;
24801;SDS011;12898;50.520;12.152;2022-08-19T02:56:53;50.72;;;39.40;;
24801;SDS011;12898;50.520;12.152;2022-08-19T02:59:19;48.85;;;38.03;;
24801;SDS011;12898;50.520;12.152;2022-08-19T03:01:44;47.08;;;38.72;;
24801;SDS011;12898;50.520;12.152;2022-08-19T03:04:11;47.60;;;37.63;;
24801;SDS011;12898;50.520;12.152;2022-08-19T03:06:41;49.50;;;39.58;;
24801;SDS011;12898;50.520;12.152;2022-08-19T03:09:09;47.40;;;37.20;;
24801;SDS011;12898;50.520;12.152;2022-08-19T03:11:36;49.85;;;38.88;;
24801;SDS011;12898;50.520;12.152;2022-08-19T03:14:03;48.00;;;38.58;;
24801;SDS011;12898;50.520;12.152;2022-08-19T03:16:33;48.38;;;39.53;;
24801;SDS011;12898;50.520;12.152;2022-08-19T03:19:06;48.22;;;37.22;;
24801;SDS011;12898;50.520;12.152;2022-08-19T03:21:32;48.42;;;38.72;;
24801;SDS011;12898;50.520;12.152;2022-08-19T03:24:01;48.03;;;37.78;;
24801;SDS011;12898;50.520;12.152;2022-08-19T03:26:30;47.65;;;38.28;;
24801;SDS011;12898;50.520;12.152;2022-08-19T03:28:57;51.35;;;38.22;;
24801;SDS011;12898;50.520;12.152;2022-08-19T03:31:27;46.75;;;38.20;;
24801;SDS011;12898;50.520;12.152;2022-08-19T03:33:53;47.30;;;38.38;;
24801;SDS011;12898;50.520;12.152;2022-08-19T03:36:20;48.08;;;38.15;;
24801;SDS011;12898;50.520;12.152;2022-08-19T03:38:50;51.72;;;39.40;;
24801;SDS011;12898;50.520;12.152;2022-08-19T03:41:23;48.15;;;37.63;;
24801;SDS011;12898;50.520;12.152;2022-08-19T03:43:52;48.17;;;37.75;;
24801;SDS011;12898;50.520;12.152;2022-08-19T03:46:22;52.58;;;38.67;;
24801;SDS011;12898;50.520;12.152;2022-08-19T03:48:54;49.67;;;37.03;;
24801;SDS011;12898;50.520;12.152;2022-08-19T03:51:23;48.17;;;37.80;;
24801;SDS011;12898;50.520;12.152;2022-08-19T03:53:56;45.83;;;37.38;;
24801;SDS011;12898;50.520;12.152;2022-08-19T03:56:24;50.97;;;38.17;;
24801;SDS011;12898;50.520;12.152;2022-08-19T03:58:51;53.35;;;39.78;;
24801;SDS011;12898;50.520;12.152;2022-08-19T04:01:18;53.90;;;40.33;;
24801;SDS011;12898;50.520;12.152;2022-08-19T04:03:47;50.30;;;38.45;;
24801;SDS011;12898;50.520;12.152;2022-08-19T04:06:18;53.10;;;38.90;;
24801;SDS011;12898;50.520;12.152;2022-08-19T04:08:47;49.78;;;37.70;;
24801;SDS011;12898;50.520;12.152;2022-08-19T04:11:16;52.45;;;38.10;;
24801;SDS011;12898;50.520;12.152;2022-08-19T04:13:48;49.30;;;37.03;;
24801;SDS011;12898;50.520;12.152;2022-08-19T04:16:16;52.47;;;39.75;;
24801;SDS011;12898;50.520;12.152;2022-08-19T04:18:44;58.85;;;40.97;;
24801;SDS011;12898;50.520;12.152;2022-08-19T04:21:15;54.83;;;40.08;;
24801;SDS011;12898;50.520;12.152;2022-08-19T04:23:50;51.15;;;39.80;;
24801;SDS011;12898;50.520;12.152;2022-08-19T04:26:18;50.08;;;38.75;;
24801;SDS011;12898;50.520;12.152;2022-08-19T04:28:53;50.83;;;39.95;;
24801;SDS011;12898;50.520;12.152;2022-08-19T04:31:24;51.70;;;38.90;;
24801;SDS011;12898;50.520;12.152;2022-08-19T04:33:53;49.50;;;39.72;;
24801;SDS011;12898;50.520;12.152;2022-08-19T04:36:22;54.95;;;38.95;;
24801;SDS011;12898;50.520;12.152;2022-08-19T04:38:54;49.85;;;39.33;;
24801;SDS011;12898;50.520;12.152;2022-08-19T04:41:22;45.30;;;36.00;;
24801;SDS011;12898;50.520;12.152;2022-08-19T04:44:07;45.33;;;36.65;;
24801;SDS011;12898;50.520;12.152;2022-08-19T04:46:32;46.45;;;36.50;;
24801;SDS011;12898;50.520;12.152;2022-08-19T04:48:59;44.42;;;36.08;;
24801;SDS011;12898;50.520;12.152;2022-08-19T04:51:26;40.53;;;33.83;;
24801;SDS011;12898;50.520;12.152;2022-08-19T04:53:52;39.63;;;31.85;;
24801;SDS011;12898;50.520;12.152;2022-08-19T04:56:18;38.90;;;32.45;;
24801;SDS011;12898;50.520;12.152;2022-08-19T04:58:51;40.22;;;33.03;;
24801;SDS011;12898;50.520;12.152;2022-08-19T05:01:21;36.40;;;29.13;;
24801;SDS011;12898;50.520;12.152;2022-08-19T05:03:54;33.92;;;27.55;;
24801;SDS011;12898;50.520;12.152;2022-08-19T05:06:21;31.50;;;25.40;;
24801;SDS011;12898;50.520;12.152;2022-08-19T05:08:48;31.13;;;25.40;;
24801;SDS011;12898;50.520;12.152;2022-08-19T05:13:46;27.77;;;23.23;;
24801;SDS011;12898;50.520;12.152;2022-08-19T05:16:14;28.73;;;22.17;;
24801;SDS011;12898;50.520;12.152;2022-08-19T05:18:42;28.00;;;20.48;;
24801;SDS011;12898;50.520;12.152;2022-08-19T05:21:27;25.50;;;20.67;;
24801;SDS011;12898;50.520;12.152;2022-08-19T05:24:12;27.15;;;21.63;;
24801;SDS011;12898;50.520;12.152;2022-08-19T05:26:39;28.70;;;22.77;;
24801;SDS011;12898;50.520;12.152;2022-08-19T05:29:08;27.58;;;22.02;;
24801;SDS011;12898;50.520;12.152;2022-08-19T05:31:35;32.55;;;26.60;;
24801;SDS011;12898;50.520;12.152;2022-08-19T05:34:03;29.23;;;24.30;;
24801;SDS011;12898;50.520;12.152;2022-08-19T05:36:34;30.20;;;24.80;;
24801;SDS011;12898;50.520;12.152;2022-08-19T05:39:09;34.05;;;26.02;;
24801;SDS011;12898;50.520;12.152;2022-08-19T05:41:43;30.40;;;24.98;;
24801;SDS011;12898;50.520;12.152;2022-08-19T05:44:15;36.28;;;29.08;;
24801;SDS011;12898;50.520;12.152;2022-08-19T05:46:45;35.05;;;28.08;;
24801;SDS011;12898;50.520;12.152;2022-08-19T05:49:17;31.08;;;25.55;;
24801;SDS011;12898;50.520;12.152;2022-08-19T05:51:45;41.78;;;29.58;;
24801;SDS011;12898;50.520;12.152;2022-08-19T05:54:10;36.45;;;28.67;;
24801;SDS011;12898;50.520;12.152;2022-08-19T05:56:38;37.55;;;29.45;;
24801;SDS011;12898;50.520;12.152;2022-08-19T05:59:06;40.22;;;31.00;;
24801;SDS011;12898;50.520;12.152;2022-08-19T06:01:36;39.75;;;31.10;;
24801;SDS011;12898;50.520;12.152;2022-08-19T06:04:08;38.42;;;31.27;;
24801;SDS011;12898;50.520;12.152;2022-08-19T06:06:34;39.25;;;32.13;;
24801;SDS011;12898;50.520;12.152;2022-08-19T06:09:02;41.22;;;32.00;;
24801;SDS011;12898;50.520;12.152;2022-08-19T06:11:46;40.03;;;31.98;;
24801;SDS011;12898;50.520;12.152;2022-08-19T06:14:25;43.00;;;32.42;;
24801;SDS011;12898;50.520;12.152;2022-08-19T06:16:56;43.03;;;33.45;;
24801;SDS011;12898;50.520;12.152;2022-08-19T06:19:27;42.25;;;34.42;;
24801;SDS011;12898;50.520;12.152;2022-08-19T06:21:56;41.17;;;33.42;;
24801;SDS011;12898;50.520;12.152;2022-08-19T06:24:26;41.03;;;32.28;;
24801;SDS011;12898;50.520;12.152;2022-08-19T06:26:54;41.05;;;33.60;;
24801;SDS011;12898;50.520;12.152;2022-08-19T06:29:22;40.63;;;33.22;;
24801;SDS011;12898;50.520;12.152;2022-08-19T06:31:51;41.22;;;33.33;;
24801;SDS011;12898;50.520;12.152;2022-08-19T06:34:19;40.55;;;33.28;;
24801;SDS011;12898;50.520;12.152;2022-08-19T06:36:46;43.42;;;34.25;;
24801;SDS011;12898;50.520;12.152;2022-08-19T06:39:16;41.80;;;33.50;;
24801;SDS011;12898;50.520;12.152;2022-08-19T06:41:47;43.10;;;34.85;;
24801;SDS011;12898;50.520;12.152;2022-08-19T06:44:15;42.10;;;33.70;;
24801;SDS011;12898;50.520;12.152;2022-08-19T06:46:45;36.13;;;29.25;;
24801;SDS011;12898;50.520;12.152;2022-08-19T06:49:12;37.20;;;31.70;;
24801;SDS011;12898;50.520;12.152;2022-08-19T06:51:42;39.72;;;31.15;;
24801;SDS011;12898;50.520;12.152;2022-08-19T06:54:12;38.65;;;31.17;;
24801;SDS011;12898;50.520;12.152;2022-08-19T06:56:39;35.83;;;28.27;;
24801;SDS011;12898;50.520;12.152;2022-08-19T06:59:12;35.20;;;29.23;;
24801;SDS011;12898;50.520;12.152;2022-08-19T07:01:49;37.42;;;30.15;;
24801;SDS011;12898;50.520;12.152;2022-08-19T07:04:19;36.42;;;29.98;;
24801;SDS011;12898;50.520;12.152;2022-08-19T07:06:49;35.50;;;29.73;;
24801;SDS011;12898;50.520;12.152;2022-08-19T07:09:22;34.40;;;27.45;;
24801;SDS011;12898;50.520;12.152;2022-08-19T07:11:48;33.63;;;28.35;;
24801;SDS011;12898;50.520;12.152;2022-08-19T07:14:21;36.20;;;28.40;;
24801;SDS011;12898;50.520;12.152;2022-08-19T07:16:51;38.30;;;29.65;;
24801;SDS011;12898;50.520;12.152;2022-08-19T07:19:20;40.58;;;30.38;;
24801;SDS011;12898;50.520;12.152;2022-08-19T07:21:48;34.80;;;27.73;;
24801;SDS011;12898;50.520;12.152;2022-08-19T07:24:18;36.67;;;29.73;;
24801;SDS011;12898;50.520;12.152;2022-08-19T07:26:48;37.47;;;29.50;;
24801;SDS011;12898;50.520;12.152;2022-08-19T07:29:16;38.83;;;30.80;;
24801;SDS011;12898;50.520;12.152;2022-08-19T07:31:43;41.42;;;31.63;;
24801;SDS011;12898;50.520;12.152;2022-08-19T07:34:10;40.03;;;32.17;;
24801;SDS011;12898;50.520;12.152;2022-08-19T07:36:39;43.45;;;33.28;;
24801;SDS011;12898;50.520;12.152;2022-08-19T07:39:12;44.17;;;33.95;;
24801;SDS011;12898;50.520;12.152;2022-08-19T07:41:44;39.78;;;31.30;;
24801;SDS011;12898;50.520;12.152;2022-08-19T07:44:12;44.03;;;34.95;;
24801;SDS011;12898;50.520;12.152;2022-08-19T07:46:40;43.78;;;33.60;;
24801;SDS011;12898;50.520;12.152;2022-08-19T07:49:09;48.38;;;34.13;;
24801;SDS011;12898;50.520;12.152;2022-08-19T07:51:54;49.08;;;35.58;;
24801;SDS011;12898;50.520;12.152;2022-08-19T07:54:28;44.17;;;34.03;;
24801;SDS011;12898;50.520;12.152;2022-08-19T07:56:56;47.40;;;36.70;;
24801;SDS011;12898;50.520;12.152;2022-08-19T07:59:25;45.45;;;34.28;;
24801;SDS011;12898;50.520;12.152;2022-08-19T08:01:53;46.95;;;36.08;;
24801;SDS011;12898;50.520;12.152;2022-08-19T08:04:20;49.25;;;36.67;;
24801;SDS011;12898;50.520;12.152;2022-08-19T08:07:06;48.85;;;37.17;;
24801;SDS011;12898;50.520;12.152;2022-08-19T08:09:52;49.80;;;36.72;;
24801;SDS011;12898;50.520;12.152;2022-08-19T08:12:20;48.25;;;36.28;;
24801;SDS011;12898;50.520;12.152;2022-08-19T08:14:53;46.08;;;34.40;;
24801;SDS011;12898;50.520;12.152;2022-08-19T08:17:27;49.20;;;36.47;;
24801;SDS011;12898;50.520;12.152;2022-08-19T08:19:54;47.10;;;36.53;;
24801;SDS011;12898;50.520;12.152;2022-08-19T08:22:24;45.33;;;34.53;;
24801;SDS011;12898;50.520;12.152;2022-08-19T08:25:13;45.05;;;35.42;;
24801;SDS011;12898;50.520;12.152;2022-08-19T08:27:43;47.30;;;35.75;;
24801;SDS011;12898;50.520;12.152;2022-08-19T08:30:12;43.45;;;33.15;;
24801;SDS011;12898;50.520;12.152;2022-08-19T08:32:45;39.22;;;32.70;;
24801;SDS011;12898;50.520;12.152;2022-08-19T08:35:14;37.38;;;31.75;;
24801;SDS011;12898;50.520;12.152;2022-08-19T08:37:41;40.05;;;31.65;;
24801;SDS011;12898;50.520;12.152;2022-08-19T08:40:52;36.17;;;29.45;;
24801;SDS011;12898;50.520;12.152;2022-08-19T08:43:37;37.40;;;29.50;;
24801;SDS011;12898;50.520;12.152;2022-08-19T08:52:06;35.67;;;28.70;;
24801;SDS011;12898;50.520;12.152;2022-08-19T08:54:39;33.20;;;27.65;;
24801;SDS011;12898;50.520;12.152;2022-08-19T08:57:27;30.95;;;25.27;;
24801;SDS011;12898;50.520;12.152;2022-08-19T09:00:10;33.13;;;27.17;;
24801;SDS011;12898;50.520;12.152;2022-08-19T09:02:43;32.95;;;27.38;;
24801;SDS011;12898;50.520;12.152;2022-08-19T09:05:10;33.65;;;27.38;;
24801;SDS011;12898;50.520;12.152;2022-08-19T09:10:39;32.08;;;25.65;;
24801;SDS011;12898;50.520;12.152;2022-08-19T09:16:07;32.40;;;25.83;;
24801;SDS011;12898;50.520;12.152;2022-08-19T09:18:44;32.90;;;26.08;;
24801;SDS011;12898;50.520;12.152;2022-08-19T09:21:14;31.45;;;26.20;;
24801;SDS011;12898;50.520;12.152;2022-08-19T09:23:41;33.63;;;27.50;;
24801;SDS011;12898;50.520;12.152;2022-08-19T09:26:09;36.13;;;28.15;;
24801;SDS011;12898;50.520;12.152;2022-08-19T09:28:41;36.38;;;29.20;;
24801;SDS011;12898;50.520;12.152;2022-08-19T09:31:09;37.35;;;32.20;;
24801;SDS011;12898;50.520;12.152;2022-08-19T09:33:37;37.38;;;30.58;;
24801;SDS011;12898;50.520;12.152;2022-08-19T09:36:10;37.63;;;31.13;;
24801;SDS011;12898;50.520;12.152;2022-08-19T09:38:41;38.17;;;31.15;;
24801;SDS011;12898;50.520;12.152;2022-08-19T09:41:11;38.90;;;30.55;;
24801;SDS011;12898;50.520;12.152;2022-08-19T09:43:41;37.90;;;31.23;;
24801;SDS011;12898;50.520;12.152;2022-08-19T09:46:10;37.17;;;29.20;;
24801;SDS011;12898;50.520;12.152;2022-08-19T09:48:36;38.10;;;31.23;;
24801;SDS011;12898;50.520;12.152;2022-08-19T09:51:07;42.47;;;30.27;;
24801;SDS011;12898;50.520;12.152;2022-08-19T09:53:37;39.17;;;31.10;;
24801;SDS011;12898;50.520;12.152;2022-08-19T09:56:04;39.95;;;31.63;;
24801;SDS011;12898;50.520;12.152;2022-08-19T09:58:31;42.42;;;33.35;;
24801;SDS011;12898;50.520;12.152;2022-08-19T10:01:00;42.67;;;34.55;;
24801;SDS011;12898;50.520;12.152;2022-08-19T10:03:28;42.30;;;34.28;;
24801;SDS011;12898;50.520;12.152;2022-08-19T10:05:56;45.72;;;35.00;;
24801;SDS011;12898;50.520;12.152;2022-08-19T10:08:25;44.30;;;35.05;;
24801;SDS011;12898;50.520;12.152;2022-08-19T10:11:00;45.35;;;35.60;;
24801;SDS011;12898;50.520;12.152;2022-08-19T10:13:29;45.17;;;36.08;;
24801;SDS011;12898;50.520;12.152;2022-08-19T10:16:01;43.95;;;34.47;;
24801;SDS011;12898;50.520;12.152;2022-08-19T10:18:31;45.47;;;35.17;;
24801;SDS011;12898;50.520;12.152;2022-08-19T10:21:05;45.72;;;35.65;;
24801;SDS011;12898;50.520;12.152;2022-08-19T10:23:38;46.80;;;35.90;;
24801;SDS011;12898;50.520;12.152;2022-08-19T10:26:10;49.17;;;38.63;;
24801;SDS011;12898;50.520;12.152;2022-08-19T10:28:42;53.55;;;39.20;;
24801;SDS011;12898;50.520;12.152;2022-08-19T10:31:13;55.05;;;39.47;;
24801;SDS011;12898;50.520;12.152;2022-08-19T10:33:42;48.97;;;39.40;;
24801;SDS011;12898;50.520;12.152;2022-08-19T10:36:09;49.35;;;39.47;;
24801;SDS011;12898;50.520;12.152;2022-08-19T10:38:43;52.50;;;39.78;;
24801;SDS011;12898;50.520;12.152;2022-08-19T10:41:14;48.65;;;38.05;;
24801;SDS011;12898;50.520;12.152;2022-08-19T10:43:49;53.33;;;41.15;;
24801;SDS011;12898;50.520;12.152;2022-08-19T10:46:19;48.78;;;38.72;;
24801;SDS011;12898;50.520;12.152;2022-08-19T10:48:46;49.25;;;38.50;;
24801;SDS011;12898;50.520;12.152;2022-08-19T10:51:12;49.55;;;36.58;;
24801;SDS011;12898;50.520;12.152;2022-08-19T10:53:57;46.65;;;38.15;;
24801;SDS011;12898;50.520;12.152;2022-08-19T10:56:23;43.85;;;34.63;;
24801;SDS011;12898;50.520;12.152;2022-08-19T10:59:09;41.28;;;33.08;;
24801;SDS011;12898;50.520;12.152;2022-08-19T11:01:37;37.30;;;31.13;;
24801;SDS011;12898;50.520;12.152;2022-08-19T11:04:03;40.50;;;30.95;;
24801;SDS011;12898;50.520;12.152;2022-08-19T11:06:35;38.13;;;30.35;;
24801;SDS011;12898;50.520;12.152;2022-08-19T11:09:08;37.65;;;31.75;;
24801;SDS011;12898;50.520;12.152;2022-08-19T11:11:36;35.50;;;29.33;;
24801;SDS011;12898;50.520;12.152;2022-08-19T11:14:06;31.42;;;26.63;;
24801;SDS011;12898;50.520;12.152;2022-08-19T11:16:39;29.98;;;25.73;;
24801;SDS011;12898;50.520;12.152;2022-08-19T11:19:07;26.35;;;22.90;;
24801;SDS011;12898;50.520;12.152;2022-08-19T11:21:36;24.05;;;20.52;;
24801;SDS011;12898;50.520;12.152;2022-08-19T11:24:06;24.55;;;20.95;;
24801;SDS011;12898;50.520;12.152;2022-08-19T11:26:38;23.65;;;20.13;;
24801;SDS011;12898;50.520;12.152;2022-08-19T11:29:06;23.15;;;19.85;;
24801;SDS011;12898;50.520;12.152;2022-08-19T11:31:38;24.98;;;20.92;;
24801;SDS011;12898;50.520;12.152;2022-08-19T11:34:08;24.73;;;21.92;;
24801;SDS011;12898;50.520;12.152;2022-08-19T11:36:39;25.17;;;22.48;;
24801;SDS011;12898;50.520;12.152;2022-08-19T11:39:08;27.65;;;23.38;;
24801;SDS011;12898;50.520;12.152;2022-08-19T11:41:39;25.95;;;21.98;;
24801;SDS011;12898;50.520;12.152;2022-08-19T11:44:05;27.30;;;22.88;;
24801;SDS011;12898;50.520;12.152;2022-08-19T11:46:33;26.30;;;23.50;;
24801;SDS011;12898;50.520;12.152;2022-08-19T11:49:03;23.85;;;21.23;;
24801;SDS011;12898;50.520;12.152;2022-08-19T11:51:30;23.33;;;20.58;;
24801;SDS011;12898;50.520;12.152;2022-08-19T11:53:57;24.67;;;20.45;;
24801;SDS011;12898;50.520;12.152;2022-08-19T11:56:25;21.98;;;19.27;;
24801;SDS011;12898;50.520;12.152;2022-08-19T11:58:52;24.70;;;19.98;;
24801;SDS011;12898;50.520;12.152;2022-08-19T12:01:20;25.20;;;19.88;;
24801;SDS011;12898;50.520;12.152;2022-08-19T12:03:49;25.15;;;18.70;;
24801;SDS011;12898;50.520;12.152;2022-08-19T12:06:21;23.58;;;19.77;;
24801;SDS011;12898;50.520;12.152;2022-08-19T12:08:53;24.33;;;20.23;;
24801;SDS011;12898;50.520;12.152;2022-08-19T12:11:24;21.63;;;19.33;;
24801;SDS011;12898;50.520;12.152;2022-08-19T12:13:51;22.60;;;18.90;;
24801;SDS011;12898;50.520;12.152;2022-08-19T12:16:19;20.38;;;17.40;;
24801;SDS011;12898;50.520;12.152;2022-08-19T12:18:48;23.33;;;17.52;;
24801;SDS011;12898;50.520;12.152;2022-08-19T12:21:16;21.00;;;16.55;;
24801;SDS011;12898;50.520;12.152;2022-08-19T12:23:50;20.63;;;17.45;;
24801;SDS011;12898;50.520;12.152;2022-08-19T12:26:17;19.70;;;17.55;;
24801;SDS011;12898;50.520;12.152;2022-08-19T12:28:43;24.10;;;18.30;;
24801;SDS011;12898;50.520;12.152;2022-08-19T12:31:09;19.90;;;17.73;;
24801;SDS011;12898;50.520;12.152;2022-08-19T12:33:39;21.48;;;18.02;;
24801;SDS011;12898;50.520;12.152;2022-08-19T12:36:06;23.98;;;19.33;;
24801;SDS011;12898;50.520;12.152;2022-08-19T12:38:35;21.38;;;17.80;;
24801;SDS011;12898;50.520;12.152;2022-08-19T12:41:02;21.48;;;17.15;;
24801;SDS011;12898;50.520;12.152;2022-08-19T12:43:31;21.38;;;17.88;;
24801;SDS011;12898;50.520;12.152;2022-08-19T12:46:00;22.40;;;19.08;;
24801;SDS011;12898;50.520;12.152;2022-08-19T12:48:28;21.42;;;19.13;;
24801;SDS011;12898;50.520;12.152;2022-08-19T12:50:55;21.25;;;19.00;;
24801;SDS011;12898;50.520;12.152;2022-08-19T12:53:21;22.20;;;19.38;;
24801;SDS011;12898;50.520;12.152;2022-08-19T12:55:47;24.10;;;20.05;;
24801;SDS011;12898;50.520;12.152;2022-08-19T12:58:21;23.58;;;19.88;;
24801;SDS011;12898;50.520;12.152;2022-08-19T13:00:47;23.05;;;19.85;;
24801;SDS011;12898;50.520;12.152;2022-08-19T13:03:13;23.73;;;19.75;;
24801;SDS011;12898;50.520;12.152;2022-08-19T13:05:40;22.88;;;18.90;;
24801;SDS011;12898;50.520;12.152;2022-08-19T13:08:06;22.30;;;18.88;;
24801;SDS011;12898;50.520;12.152;2022-08-19T13:10:34;23.35;;;19.90;;
24801;SDS011;12898;50.520;12.152;2022-08-19T13:13:02;22.50;;;19.20;;
24801;SDS011;12898;50.520;12.152;2022-08-19T13:15:32;22.50;;;19.02;;
24801;SDS011;12898;50.520;12.152;2022-08-19T13:18:02;21.65;;;19.30;;
24801;SDS011;12898;50.520;12.152;2022-08-19T13:20:28;21.75;;;18.15;;
24801;SDS011;12898;50.520;12.152;2022-08-19T13:22:54;20.60;;;17.67;;
24801;SDS011;12898;50.520;12.152;2022-08-19T13:25:20;23.83;;;18.20;;
24801;SDS011;12898;50.520;12.152;2022-08-19T13:27:47;21.63;;;17.38;;
24801;SDS011;12898;50.520;12.152;2022-08-19T13:30:15;21.45;;;17.38;;
24801;SDS011;12898;50.520;12.152;2022-08-19T13:33:01;19.08;;;16.38;;
24801;SDS011;12898;50.520;12.152;2022-08-19T13:35:36;19.48;;;16.02;;
24801;SDS011;12898;50.520;12.152;2022-08-19T13:38:04;18.80;;;15.98;;
24801;SDS011;12898;50.520;12.152;2022-08-19T13:40:30;19.67;;;17.05;;
24801;SDS011;12898;50.520;12.152;2022-08-19T13:42:58;20.35;;;17.02;;
24801;SDS011;12898;50.520;12.152;2022-08-19T13:45:26;21.77;;;17.23;;
24801;SDS011;12898;50.520;12.152;2022-08-19T13:47:54;20.73;;;16.83;;
24801;SDS011;12898;50.520;12.152;2022-08-19T13:50:23;26.30;;;17.70;;
24801;SDS011;12898;50.520;12.152;2022-08-19T13:52:52;23.45;;;18.80;;
24801;SDS011;12898;50.520;12.152;2022-08-19T13:55:19;22.13;;;18.10;;
24801;SDS011;12898;50.520;12.152;2022-08-19T13:57:54;24.98;;;19.23;;
24801;SDS011;12898;50.520;12.152;2022-08-19T14:00:22;24.70;;;18.30;;
24801;SDS011;12898;50.520;12.152;2022-08-19T14:02:55;23.10;;;18.92;;
24801;SDS011;12898;50.520;12.152;2022-08-19T14:05:21;23.58;;;18.98;;
24801;SDS011;12898;50.520;12.152;2022-08-19T14:07:48;23.33;;;18.52;;
24801;SDS011;12898;50.520;12.152;2022-08-19T14:10:15;23.30;;;19.23;;
24801;SDS011;12898;50.520;12.152;2022-08-19T14:12:41;24.40;;;18.40;;
24801;SDS011;12898;50.520;12.152;2022-08-19T14:15:08;21.65;;;17.80;;
24801;SDS011;12898;50.520;12.152;2022-08-19T14:17:40;21.90;;;17.90;;
24801;SDS011;12898;50.520;12.152;2022-08-19T14:20:09;21.52;;;17.77;;
24801;SDS011;12898;50.520;12.152;2022-08-19T14:22:37;22.73;;;18.90;;
24801;SDS011;12898;50.520;12.152;2022-08-19T14:25:05;24.50;;;17.70;;
24801;SDS011;12898;50.520;12.152;2022-08-19T14:27:33;28.75;;;19.13;;
24801;SDS011;12898;50.520;12.152;2022-08-19T14:30:04;22.02;;;18.65;;
24801;SDS011;12898;50.520;12.152;2022-08-19T14:32:33;21.75;;;18.80;;
24801;SDS011;12898;50.520;12.152;2022-08-19T14:35:00;25.25;;;18.90;;
24801;SDS011;12898;50.520;12.152;2022-08-19T14:37:29;21.73;;;18.10;;